Time;durP1;ratioP1;P1;durP2;ratioP2;P2;SDS_P1;SDS_P2;PMS_P1;PMS_P2;Temp;Humidity;BMP_temperature;BMP_pressure;BME280_temperature;BME280_humidity;BME280_pressure;Samples;Min_cycle;Max_cycle;Signal;HPM_P1;HPM_P2
2023/07/19 00:00:06;;;;;;;3.93;2.03;;;18.70;1.00;;;;;;5032929;28;20564;-83
2023/07/19 00:02:31;;;;;;;3.93;1.87;;;18.80;1.00;;;;;;5032763;28;20224;-83
2023/07/19 00:04:57;;;;;;;2.60;1.43;;;18.80;1.00;;;;;;5032809;28;20413;-83
2023/07/19 00:07:22;;;;;;;3.57;2.07;;;18.70;1.00;;;;;;5032845;28;20190;-83
2023/07/19 00:09:48;;;;;;;3.40;2.10;;;18.70;1.00;;;;;;5032759;28;20649;-83
2023/07/19 00:12:13;;;;;;;4.00;1.67;;;18.70;1.00;;;;;;5032236;28;20207;-83
2023/07/19 00:14:39;;;;;;;3.00;1.57;;;18.70;1.00;;;;;;5032820;28;20573;-82
2023/07/19 00:17:07;;;;;;;3.13;1.90;;;18.70;1.00;;;;;;5032707;28;20201;-83
2023/07/19 00:19:32;;;;;;;3.43;2.37;;;18.70;1.00;;;;;;5032823;28;20208;-83
2023/07/19 00:21:57;;;;;;;2.47;1.83;;;18.60;1.00;;;;;;5041217;28;20412;-82
2023/07/19 00:24:23;;;;;;;3.87;1.23;;;18.60;1.00;;;;;;5032680;28;20217;-83
2023/07/19 00:26:49;;;;;;;2.80;1.40;;;18.60;1.00;;;;;;5032338;28;20173;-83
2023/07/19 00:29:14;;;;;;;3.00;1.93;;;18.60;1.00;;;;;;5035691;28;20180;-83
2023/07/19 00:31:40;;;;;;;3.80;1.17;;;18.60;1.00;;;;;;5036372;28;20174;-83
2023/07/19 00:34:06;;;;;;;4.17;1.00;;;18.60;1.00;;;;;;5036499;28;20517;-83
2023/07/19 00:36:32;;;;;;;3.03;1.40;;;18.60;1.00;;;;;;5035856;28;20167;-82
2023/07/19 00:38:58;;;;;;;2.40;1.67;;;18.60;1.00;;;;;;5036295;28;20428;-82
2023/07/19 00:41:26;;;;;;;2.67;1.10;;;18.60;1.00;;;;;;5034659;28;20432;-82
2023/07/19 00:43:51;;;;;;;1.80;0.90;;;18.60;1.00;;;;;;5036147;28;20175;-81
2023/07/19 00:46:19;;;;;;;2.93;1.43;;;18.50;1.00;;;;;;5036154;28;20411;-81
2023/07/19 00:48:45;;;;;;;3.03;2.03;;;18.50;1.00;;;;;;5036031;28;20174;-81
2023/07/19 00:51:11;;;;;;;2.60;1.10;;;18.50;1.00;;;;;;5036039;28;20436;-81
2023/07/19 00:53:38;;;;;;;2.93;1.47;;;18.50;1.00;;;;;;5036006;28;20179;-81
2023/07/19 00:56:04;;;;;;;4.07;1.20;;;18.40;1.00;;;;;;5035626;28;20162;-81
2023/07/19 00:58:31;;;;;;;2.73;1.80;;;18.40;1.00;;;;;;5035800;28;20533;-81
2023/07/19 01:00:57;;;;;;;2.67;1.30;;;18.40;1.00;;;;;;5035601;28;20217;-81
2023/07/19 01:03:25;;;;;;;2.57;1.23;;;18.40;4.30;;;;;;5035688;28;20447;-82
2023/07/19 01:05:51;;;;;;;3.00;1.10;;;18.50;1.00;;;;;;5034535;28;20413;-81
2023/07/19 01:08:18;;;;;;;3.10;1.43;;;18.50;1.00;;;;;;5035731;28;20437;-81
2023/07/19 01:10:43;;;;;;;2.70;1.50;;;18.50;5.00;;;;;;5035484;28;20583;-81
2023/07/19 01:13:10;;;;;;;4.03;2.17;;;18.50;23.20;;;;;;5035668;28;20420;-81
2023/07/19 01:15:37;;;;;;;2.57;1.33;;;18.60;9.30;;;;;;5035563;28;20172;-81
2023/07/19 01:18:03;;;;;;;4.13;1.60;;;18.60;1.00;;;;;;5034192;28;20994;-81
2023/07/19 01:20:28;;;;;;;2.93;1.33;;;18.70;1.00;;;;;;5035619;28;20949;-82
2023/07/19 01:22:55;;;;;;;3.90;1.50;;;18.60;1.00;;;;;;5035574;28;20411;-82
2023/07/19 01:25:21;;;;;;;2.53;1.83;;;18.60;1.00;;;;;;5035080;28;20528;-82
2023/07/19 01:27:47;;;;;;;3.40;1.30;;;18.60;1.00;;;;;;5035322;28;20413;-83
2023/07/19 01:30:13;;;;;;;2.10;1.40;;;18.60;1.00;;;;;;5035429;28;20412;-83
2023/07/19 01:32:39;;;;;;;2.20;0.90;;;18.50;1.00;;;;;;5038350;28;20176;-83
2023/07/19 01:35:04;;;;;;;3.40;1.53;;;18.50;1.00;;;;;;5055212;28;20533;-82
2023/07/19 01:37:30;;;;;;;3.60;1.87;;;18.50;1.00;;;;;;5055103;28;20222;-83
2023/07/19 01:39:56;;;;;;;4.50;1.53;;;18.40;1.00;;;;;;5053607;28;20211;-83
2023/07/19 01:42:21;;;;;;;3.53;1.80;;;18.40;1.00;;;;;;5054984;28;20549;-82
2023/07/19 01:44:47;;;;;;;2.00;1.43;;;18.30;1.00;;;;;;5055003;28;20170;-82
2023/07/19 01:47:12;;;;;;;4.23;1.20;;;18.30;10.40;;;;;;5054944;28;20640;-83
2023/07/19 01:49:39;;;;;;;2.03;1.20;;;18.30;28.80;;;;;;5054937;28;20226;-82
2023/07/19 01:52:05;;;;;;;4.87;1.80;;;18.30;39.60;;;;;;5054824;28;20181;-82
2023/07/19 01:54:30;;;;;;;3.87;1.50;;;18.30;46.90;;;;;;5054670;28;20419;-82
2023/07/19 01:56:56;;;;;;;3.67;1.43;;;18.30;53.40;;;;;;5042931;28;20196;-82
2023/07/19 01:59:21;;;;;;;5.40;1.70;;;18.30;50.20;;;;;;5033475;28;20187;-82
2023/07/19 02:01:47;;;;;;;3.47;1.43;;;18.30;53.90;;;;;;5034594;28;20313;-82
2023/07/19 02:04:12;;;;;;;5.37;1.60;;;18.30;56.40;;;;;;5034722;28;20178;-82
2023/07/19 02:06:38;;;;;;;2.33;1.13;;;18.30;65.70;;;;;;5034661;28;20172;-82
2023/07/19 02:09:04;;;;;;;3.07;1.50;;;18.30;72.00;;;;;;5034660;28;20174;-82
2023/07/19 02:11:29;;;;;;;3.00;1.67;;;18.30;72.30;;;;;;5034228;28;20174;-82
2023/07/19 02:13:54;;;;;;;3.47;1.60;;;18.30;71.70;;;;;;5034503;28;20181;-82
2023/07/19 02:16:20;;;;;;;5.23;2.17;;;18.30;78.20;;;;;;5034466;28;20176;-82
2023/07/19 02:18:48;;;;;;;3.57;1.50;;;18.30;81.10;;;;;;5034373;28;20243;-82
2023/07/19 02:21:13;;;;;;;5.33;1.93;;;18.30;79.50;;;;;;5034382;28;20169;-82
2023/07/19 02:23:39;;;;;;;5.33;2.23;;;18.20;91.00;;;;;;5034367;28;20504;-82
2023/07/19 02:26:04;;;;;;;4.23;2.40;;;18.20;97.70;;;;;;5033896;28;20595;-82
2023/07/19 02:28:30;;;;;;;3.23;1.73;;;18.20;91.80;;;;;;5034217;28;20176;-82
2023/07/19 02:30:55;;;;;;;3.10;2.07;;;18.20;85.90;;;;;;5034213;28;20163;-82
2023/07/19 02:33:21;;;;;;;2.70;1.57;;;18.20;68.20;;;;;;5034163;28;20502;-81
2023/07/19 02:35:52;;;;;;;2.87;1.67;;;18.20;71.80;;;;;;5034151;28;20278;-82
2023/07/19 02:38:18;;;;;;;2.50;1.30;;;18.20;75.30;;;;;;5034071;28;20201;-82
2023/07/19 02:40:44;;;;;;;2.53;1.30;;;18.20;80.70;;;;;;5033627;28;20482;-82
2023/07/19 02:43:09;;;;;;;3.63;1.73;;;18.20;74.50;;;;;;5033968;28;20181;-82
2023/07/19 02:45:35;;;;;;;3.20;2.63;;;18.20;57.60;;;;;;5033920;28;20172;-82
2023/07/19 02:48:00;;;;;;;4.30;1.53;;;18.20;37.90;;;;;;5033981;28;20169;-83
2023/07/19 02:50:26;;;;;;;2.00;1.00;;;18.20;21.30;;;;;;5033612;28;20183;-82
2023/07/19 02:52:51;;;;;;;2.07;1.10;;;18.20;19.20;;;;;;5033822;28;20179;-83
2023/07/19 02:55:17;;;;;;;3.57;0.97;;;18.20;14.50;;;;;;5033509;28;20260;-83
2023/07/19 02:57:42;;;;;;;2.23;2.03;;;18.20;2.90;;;;;;5033699;28;20757;-83
2023/07/19 03:00:11;;;;;;;1.40;0.70;;;18.20;1.00;;;;;;5033598;28;20169;-83
2023/07/19 03:02:37;;;;;;;2.00;1.13;;;18.30;1.00;;;;;;5033545;28;20225;-82
2023/07/19 03:05:03;;;;;;;4.53;2.17;;;18.30;1.00;;;;;;5033511;28;20404;-82
2023/07/19 03:07:29;;;;;;;1.80;0.97;;;18.30;1.00;;;;;;5033604;28;20226;-83
2023/07/19 03:09:55;;;;;;;1.20;0.60;;;18.30;1.00;;;;;;5033135;28;20419;-82
2023/07/19 03:12:23;;;;;;;1.70;0.83;;;18.30;1.00;;;;;;5032174;28;20548;-82
2023/07/19 03:14:49;;;;;;;3.00;1.53;;;18.30;1.00;;;;;;5032346;28;20226;-84
2023/07/19 03:17:14;;;;;;;3.53;0.90;;;18.30;1.00;;;;;;5033294;28;20817;-84
2023/07/19 03:19:39;;;;;;;2.27;1.50;;;18.30;1.00;;;;;;5033285;28;20186;-84
2023/07/19 03:22:05;;;;;;;2.90;1.50;;;18.20;1.00;;;;;;5033402;28;20173;-83
2023/07/19 03:24:33;;;;;;;4.10;1.60;;;18.20;1.00;;;;;;5032922;28;20177;-82
2023/07/19 03:26:59;;;;;;;1.77;0.80;;;18.40;1.00;;;;;;5033220;28;20189;-86
2023/07/19 03:29:24;;;;;;;2.57;0.53;;;18.20;1.00;;;;;;5033264;28;20762;-85
2023/07/19 03:31:53;;;;;;;4.47;1.33;;;18.10;1.00;;;;;;5033294;28;20208;-86
2023/07/19 03:34:18;;;;;;;3.50;1.10;;;18.10;1.00;;;;;;5033077;28;20177;-83
2023/07/19 03:36:43;;;;;;;2.70;0.70;;;18.10;1.00;;;;;;5032991;28;20428;-84
2023/07/19 03:39:09;;;;;;;2.80;0.70;;;18.10;1.00;;;;;;5015401;28;20226;-82
2023/07/19 03:41:35;;;;;;;2.00;1.03;;;18.00;1.00;;;;;;5032698;28;20521;-83
2023/07/19 03:44:00;;;;;;;1.97;0.97;;;18.00;1.40;;;;;;5033042;28;20576;-83
2023/07/19 03:46:26;;;;;;;3.37;0.63;;;18.00;1.00;;;;;;5032980;28;20215;-83
2023/07/19 03:48:51;;;;;;;3.10;1.73;;;18.00;22.00;;;;;;5032909;28;20172;-84
2023/07/19 03:51:17;;;;;;;2.47;1.20;;;17.90;27.30;;;;;;5031623;28;20185;-83
2023/07/19 03:53:42;;;;;;;1.90;0.90;;;17.90;34.10;;;;;;5033013;28;20519;-83
2023/07/19 03:56:08;;;;;;;2.10;1.20;;;17.90;51.50;;;;;;5032500;28;20173;-82
2023/07/19 03:58:33;;;;;;;4.40;1.80;;;17.80;73.60;;;;;;5032852;28;20216;-81
2023/07/19 04:01:00;;;;;;;3.43;0.90;;;17.80;92.40;;;;;;5031458;28;20254;-82
2023/07/19 04:03:26;;;;;;;3.33;1.13;;;17.80;99.90;;;;;;5034609;28;20186;-80
2023/07/19 04:05:54;;;;;;;1.80;0.93;;;17.80;96.60;;;;;;5036998;28;20427;-81
2023/07/19 04:08:19;;;;;;;2.30;0.83;;;17.80;96.10;;;;;;5036833;28;20776;-81
2023/07/19 04:10:45;;;;;;;1.50;0.63;;;17.80;95.70;;;;;;5036477;28;20418;-81
2023/07/19 04:13:12;;;;;;;6.80;1.37;;;17.80;99.90;;;;;;5036789;28;20654;-81
2023/07/19 04:15:37;;;;;;;2.30;0.77;;;17.80;99.90;;;;;;5035395;28;20176;-84
2023/07/19 04:18:03;;;;;;;2.20;0.97;;;17.80;99.90;;;;;;5036618;28;20461;-83
2023/07/19 04:20:29;;;;;;;2.10;0.50;;;17.70;99.90;;;;;;5036609;28;20171;-84
2023/07/19 04:22:55;;;;;;;2.30;1.00;;;17.80;99.90;;;;;;5036400;28;20504;-81
2023/07/19 04:25:26;;;;;;;2.47;1.00;;;17.70;99.90;;;;;;5036198;28;20414;-84
2023/07/19 04:27:52;;;;;;;1.77;0.93;;;17.80;99.90;;;;;;5036576;28;20172;-83
2023/07/19 04:30:18;;;;;;;4.70;1.43;;;17.80;99.90;;;;;;5036507;28;20845;-86
2023/07/19 04:32:43;;;;;;;2.70;1.23;;;17.80;99.90;;;;;;5036423;28;20242;-86
2023/07/19 04:35:09;;;;;;;4.03;1.20;;;17.80;88.00;;;;;;5036365;28;20662;-86
2023/07/19 04:37:35;;;;;;;3.53;1.10;;;17.80;78.80;;;;;;5036228;28;20217;-83
2023/07/19 04:40:01;;;;;;;2.27;1.03;;;17.70;87.70;;;;;;5035927;28;20646;-87
2023/07/19 04:42:28;;;;;;;3.80;0.53;;;17.80;73.50;;;;;;5036193;28;20170;-87
2023/07/19 04:44:53;;;;;;;2.70;0.60;;;17.80;60.00;;;;;;5036149;28;20218;-86
2023/07/19 04:47:19;;;;;;;2.60;0.80;;;17.80;55.90;;;;;;5038566;28;20451;-86
2023/07/19 04:49:45;;;;;;;1.60;0.50;;;17.80;50.00;;;;;;5043210;28;20270;-85
2023/07/19 04:52:10;;;;;;;2.20;0.90;;;17.80;44.20;;;;;;5045952;28;20588;-86
2023/07/19 04:54:36;;;;;;;3.27;0.80;;;17.90;31.20;;;;;;5044250;28;20546;-84
2023/07/19 04:57:01;;;;;;;2.23;0.50;;;17.90;17.10;;;;;;5042791;28;20192;-85
2023/07/19 04:59:27;;;;;;;3.77;1.10;;;17.90;3.70;;;;;;5050796;28;20549;-84
2023/07/19 05:01:52;;;;;;;1.77;0.40;;;17.80;1.00;;;;;;5040555;28;20216;-84
2023/07/19 05:04:18;;;;;;;5.57;0.77;;;17.80;1.00;;;;;;5043037;28;20265;-83
2023/07/19 05:06:44;;;;;;;4.30;0.80;;;17.80;1.00;;;;;;5055588;28;20299;-83
2023/07/19 05:09:10;;;;;;;1.17;0.63;;;17.80;1.00;;;;;;5055709;28;20188;-83
2023/07/19 05:11:36;;;;;;;3.25;1.20;;;17.80;1.00;;;;;;5055171;28;20453;-85
2023/07/19 05:14:02;;;;;;;2.40;0.93;;;17.70;1.00;;;;;;5055465;28;20183;-86
2023/07/19 05:16:27;;;;;;;3.37;1.13;;;17.70;1.00;;;;;;5055423;28;20892;-86
2023/07/19 05:18:53;;;;;;;3.47;1.43;;;17.60;1.00;;;;;;5054313;28;20268;-87
2023/07/19 05:21:18;;;;;;;2.73;1.30;;;17.60;4.70;;;;;;5054320;28;20576;-87
2023/07/19 05:23:44;;;;;;;4.50;1.37;;;17.60;27.40;;;;;;5055574;28;20178;-87
2023/07/19 05:26:10;;;;;;;1.57;0.87;;;17.60;61.10;;;;;;5053967;28;20329;-87
2023/07/19 05:28:35;;;;;;;2.13;1.37;;;17.60;99.90;;;;;;5054071;28;20651;-81
2023/07/19 05:31:03;;;;;;;6.03;1.47;;;17.60;99.90;;;;;;5054125;28;20261;-84
2023/07/19 05:33:28;;;;;;;1.57;0.67;;;17.60;99.90;;;;;;5055249;28;20178;-84
2023/07/19 05:35:53;;;;;;;1.73;1.00;;;17.60;99.90;;;;;;5055283;28;20418;-82
2023/07/19 05:38:22;;;;;;;3.10;1.17;;;17.60;99.90;;;;;;5055042;28;20234;-82
2023/07/19 05:40:48;;;;;;;2.50;1.00;;;17.60;99.90;;;;;;5054654;28;20164;-82
2023/07/19 05:43:13;;;;;;;4.87;0.80;;;17.60;99.90;;;;;;5055061;28;20439;-82
2023/07/19 05:45:39;;;;;;;2.00;0.97;;;17.60;99.90;;;;;;5054934;28;20218;-82
2023/07/19 05:48:05;;;;;;;4.97;2.00;;;17.60;99.90;;;;;;5055041;28;20246;-84
2023/07/19 05:50:30;;;;;;;2.37;1.30;;;17.60;99.90;;;;;;5054941;28;20172;-81
2023/07/19 05:52:56;;;;;;;5.03;1.77;;;17.60;99.90;;;;;;5054843;28;20565;-81
2023/07/19 05:55:21;;;;;;;2.77;1.03;;;17.70;99.90;;;;;;5054469;28;20177;-81
2023/07/19 05:57:47;;;;;;;2.07;1.40;;;17.60;99.90;;;;;;5054676;28;20262;-81
2023/07/19 06:00:28;;;;;;;2.60;0.63;;;17.70;99.90;;;;;;5054777;28;20173;-82
2023/07/19 06:02:57;;;;;;;2.67;1.53;;;17.70;99.90;;;;;;5054753;28;20713;-81
2023/07/19 06:05:25;;;;;;;1.67;1.20;;;17.80;99.90;;;;;;5054419;28;20408;-81
2023/07/19 06:07:51;;;;;;;3.37;1.00;;;17.80;99.90;;;;;;5054643;28;20421;-82
2023/07/19 06:10:18;;;;;;;4.10;1.40;;;17.80;99.90;;;;;;5052812;28;20922;-82
2023/07/19 06:12:44;;;;;;;2.93;0.77;;;17.90;99.90;;;;;;5054444;28;20776;-81
2023/07/19 06:15:10;;;;;;;2.33;0.87;;;17.90;99.90;;;;;;5054218;28;20525;-81
2023/07/19 06:17:36;;;;;;;2.30;0.60;;;17.90;99.90;;;;;;5054251;28;20565;-80
2023/07/19 06:20:03;;;;;;;2.33;1.20;;;18.00;99.90;;;;;;5047488;28;20412;-81
2023/07/19 06:22:32;;;;;;;1.43;0.50;;;18.00;99.90;;;;;;5042193;28;20430;-81
2023/07/19 06:24:58;;;;;;;2.00;1.00;;;18.10;99.90;;;;;;5045094;28;20419;-81
2023/07/19 06:27:24;;;;;;;4.33;0.87;;;18.10;99.90;;;;;;5025134;28;20932;-84
2023/07/19 06:29:51;;;;;;;3.43;0.57;;;18.10;99.90;;;;;;5044370;28;20428;-83
2023/07/19 06:32:16;;;;;;;1.73;0.63;;;18.10;99.90;;;;;;5044233;28;20235;-85
2023/07/19 06:34:42;;;;;;;2.60;0.47;;;18.20;99.90;;;;;;5045707;28;20425;-85
2023/07/19 06:37:08;;;;;;;1.60;0.63;;;18.20;99.90;;;;;;5053989;28;20263;-84
2023/07/19 06:39:33;;;;;;;2.10;1.03;;;18.30;99.90;;;;;;5053587;28;20505;-83
2023/07/19 06:41:59;;;;;;;1.37;0.30;;;18.40;99.90;;;;;;5053910;28;20624;-84
2023/07/19 06:44:24;;;;;;;2.00;0.53;;;18.50;99.90;;;;;;5053782;28;20212;-81
2023/07/19 06:46:50;;;;;;;3.13;0.73;;;18.60;99.90;;;;;;5053738;28;20166;-79
2023/07/19 06:49:15;;;;;;;2.20;0.60;;;18.60;94.30;;;;;;5052764;28;20231;-79
2023/07/19 06:51:41;;;;;;;2.57;0.70;;;18.60;63.30;;;;;;5053857;28;20211;-80
2023/07/19 06:54:07;;;;;;;4.00;0.87;;;18.50;60.10;;;;;;5053355;28;20597;-80
2023/07/19 06:56:33;;;;;;;1.60;0.80;;;18.50;34.20;;;;;;5053707;28;20621;-84
2023/07/19 06:58:58;;;;;;;1.80;0.37;;;18.40;28.50;;;;;;5053425;28;20258;-79
2023/07/19 07:01:23;;;;;;;2.40;0.80;;;18.30;43.50;;;;;;5053411;28;20504;-79
2023/07/19 07:03:50;;;;;;;1.87;0.37;;;18.30;37.70;;;;;;5053434;28;20252;-80
2023/07/19 07:06:16;;;;;;;1.03;0.70;;;18.20;44.50;;;;;;5053514;28;20181;-81
2023/07/19 07:08:42;;;;;;;1.70;0.40;;;18.10;61.60;;;;;;5053468;28;20414;-80
2023/07/19 07:11:07;;;;;;;1.37;0.73;;;18.10;58.80;;;;;;5053082;28;20173;-80
2023/07/19 07:13:33;;;;;;;2.33;0.70;;;18.10;61.90;;;;;;5053368;28;20167;-79
2023/07/19 07:15:59;;;;;;;1.90;0.60;;;18.10;98.10;;;;;;5053304;28;20182;-81
2023/07/19 07:18:24;;;;;;;2.40;0.53;;;18.10;99.90;;;;;;5053190;28;20296;-83
2023/07/19 07:20:52;;;;;;;1.87;0.63;;;18.20;99.90;;;;;;5053299;28;20453;-82
2023/07/19 07:23:18;;;;;;;1.87;0.50;;;18.20;99.90;;;;;;5053156;28;20645;-83
2023/07/19 07:25:44;;;;;;;4.53;1.20;;;18.30;99.90;;;;;;5052825;28;20452;-88
2023/07/19 07:28:09;;;;;;;1.13;0.53;;;18.20;92.70;;;;;;5037534;28;20183;-88
2023/07/19 07:30:36;;;;;;;2.57;0.40;;;18.30;67.30;;;;;;5031415;28;20181;-85
2023/07/19 07:33:02;;;;;;;2.00;0.50;;;18.30;93.00;;;;;;5031940;28;20185;-92
2023/07/19 07:35:28;;;;;;;0.70;0.30;;;18.30;99.90;;;;;;5031419;28;20432;-79
2023/07/19 07:37:54;;;;;;;4.53;0.97;;;18.50;99.90;;;;;;5031989;28;20476;-76
2023/07/19 07:40:19;;;;;;;2.10;0.50;;;18.60;99.90;;;;;;5032748;28;20841;-80
2023/07/19 07:42:45;;;;;;;1.27;0.23;;;18.70;87.90;;;;;;5032471;28;20181;-80
2023/07/19 07:45:11;;;;;;;1.53;0.60;;;18.80;64.80;;;;;;5033053;28;20167;-80
2023/07/19 07:47:36;;;;;;;2.50;0.40;;;18.80;49.70;;;;;;5032939;28;20560;-81
2023/07/19 07:50:04;;;;;;;3.90;0.37;;;18.90;31.90;;;;;;5032773;28;20173;-87
2023/07/19 07:52:29;;;;;;;5.23;0.87;;;18.90;1.00;;;;;;5033302;28;20653;-82
2023/07/19 07:54:55;;;;;;;1.13;0.67;;;18.80;1.00;;;;;;5032739;28;20494;-82
2023/07/19 07:57:21;;;;;;;1.57;0.40;;;18.80;1.00;;;;;;5044988;28;20497;-86
2023/07/19 07:59:46;;;;;;;1.27;0.37;;;18.60;1.00;;;;;;5051723;28;20185;-91
2023/07/19 08:02:11;;;;;;;1.60;0.40;;;18.70;1.00;;;;;;5051305;28;20229;-83
2023/07/19 08:04:37;;;;;;;0.93;0.27;;;18.60;1.00;;;;;;5052986;28;20168;-80
2023/07/19 08:07:03;;;;;;;0.63;0.40;;;18.60;1.00;;;;;;5052626;28;20252;-82
2023/07/19 08:09:28;;;;;;;1.50;0.20;;;18.60;1.00;;;;;;5052359;28;20259;-80
2023/07/19 08:11:54;;;;;;;1.23;0.20;;;18.60;1.00;;;;;;5052647;28;20168;-82
2023/07/19 08:14:20;;;;;;;1.00;0.20;;;18.70;1.00;;;;;;5052572;28;20216;-82
2023/07/19 08:16:47;;;;;;;1.57;0.27;;;18.70;1.00;;;;;;5052532;28;20269;-82
2023/07/19 08:19:16;;;;;;;1.60;0.37;;;18.80;1.00;;;;;;5053070;28;20573;-82
2023/07/19 08:21:41;;;;;;;1.20;0.23;;;19.00;1.00;;;;;;5052842;28;20439;-81
2023/07/19 08:24:07;;;;;;;1.77;0.30;;;19.10;1.00;;;;;;5052610;28;20424;-81
2023/07/19 08:26:32;;;;;;;1.10;0.30;;;19.40;1.00;;;;;;5052620;28;20704;-80
2023/07/19 08:28:58;;;;;;;0.80;0.20;;;19.50;1.00;;;;;;5052754;28;20208;-80
2023/07/19 08:31:23;;;;;;;0.90;0.20;;;19.70;1.00;;;;;;5052535;28;20227;-80
2023/07/19 08:33:49;;;;;;;1.97;0.60;;;19.90;1.00;;;;;;5052565;28;20584;-79
2023/07/19 08:36:14;;;;;;;0.80;0.37;;;20.10;99.90;;;;;;5052692;28;20638;-80
2023/07/19 08:38:40;;;;;;;1.13;0.20;;;20.30;99.90;;;;;;5050469;28;20253;-81
2023/07/19 08:41:06;;;;;;;1.60;0.23;;;20.50;99.90;;;;;;5052634;28;20500;-79
2023/07/19 08:43:35;;;;;;;0.80;0.30;;;20.80;99.90;;;;;;5052533;28;21018;-79
2023/07/19 08:46:02;;;;;;;1.53;0.47;;;21.10;1.00;;;;;;5052600;28;20164;-80
2023/07/19 08:48:28;;;;;;;1.37;0.23;;;21.40;1.00;;;;;;5052034;28;20937;-82
2023/07/19 08:50:58;;;;;;;1.70;0.40;;;21.70;1.00;;;;;;5056608;28;20422;-82
2023/07/19 08:53:27;;;;;;;1.90;0.30;;;22.00;99.90;;;;;;5056450;28;20418;-79
2023/07/19 08:55:53;;;;;;;3.47;0.30;;;22.20;99.90;;;;;;5055576;28;20426;-79
2023/07/19 08:58:19;;;;;;;0.97;0.30;;;22.40;1.00;;;;;;5055776;28;20986;-80
2023/07/19 09:00:46;;;;;;;1.53;0.20;;;22.50;99.90;;;;;;5055571;28;20462;-81
2023/07/19 09:03:12;;;;;;;1.67;0.70;;;22.70;99.90;;;;;;5055880;28;20192;-80
2023/07/19 09:05:38;;;;;;;0.97;0.20;;;22.90;99.90;;;;;;5055738;28;20415;-79
2023/07/19 09:08:04;;;;;;;1.77;0.40;;;23.10;99.90;;;;;;5055701;28;20247;-81
2023/07/19 09:10:30;;;;;;;1.40;0.43;;;23.40;37.60;;;;;;5055260;28;20440;-81
2023/07/19 09:12:56;;;;;;;0.90;0.20;;;23.60;1.00;;;;;;5055651;28;20455;-81
2023/07/19 09:15:21;;;;;;;2.30;0.30;;;23.80;1.00;;;;;;5055545;28;20192;-81
2023/07/19 09:17:48;;;;;;;0.93;0.30;;;24.10;1.00;;;;;;5055459;28;20455;-81
2023/07/19 09:20:15;;;;;;;2.73;0.20;;;24.40;1.00;;;;;;5055523;28;20268;-87
2023/07/19 09:22:41;;;;;;;0.80;0.20;;;24.90;1.00;;;;;;5055425;28;20416;-86
2023/07/19 09:25:11;;;;;;;1.50;0.20;;;25.60;1.00;;;;;;5054982;28;20412;-87
2023/07/19 09:27:40;;;;;;;2.40;0.30;;;26.60;99.90;;;;;;5055460;28;20981;-90
2023/07/19 09:30:10;;;;;;;2.30;0.27;;;27.50;99.90;;;;;;5055448;28;20503;-87
2023/07/19 09:32:37;;;;;;;1.53;0.20;;;28.40;99.90;;;;;;5055246;28;20412;-85
2023/07/19 09:35:07;;;;;;;1.73;0.40;;;28.80;99.90;;;;;;5055169;28;20911;-88
2023/07/19 09:37:33;;;;;;;1.73;0.30;;;29.50;99.90;;;;;;5070476;28;20575;-87
2023/07/19 09:40:01;;;;;;;1.70;0.40;;;30.20;99.90;;;;;;5054686;28;20488;-87
2023/07/19 09:42:31;;;;;;;0.83;0.20;;;30.40;99.90;;;;;;5054963;28;20180;-88
2023/07/19 09:45:02;;;;;;;1.10;0.30;;;30.30;99.90;;;;;;5054993;28;20423;-87
2023/07/19 09:47:33;;;;;;;0.90;0.30;;;29.80;99.90;;;;;;5070477;28;20463;-87
2023/07/19 09:50:04;;;;;;;1.33;0.30;;;29.50;99.90;;;;;;5054927;28;20907;-87
2023/07/19 09:52:31;;;;;;;1.37;0.30;;;29.40;99.90;;;;;;5055165;28;20760;-83
2023/07/19 09:54:57;;;;;;;1.20;0.30;;;29.00;99.90;;;;;;5054537;28;20444;-81
2023/07/19 09:57:26;;;;;;;2.40;0.67;;;28.90;99.90;;;;;;5054711;28;20494;-82
2023/07/19 09:59:53;;;;;;;0.90;0.30;;;28.90;99.90;;;;;;5053056;28;20272;-82
2023/07/19 10:02:21;;;;;;;1.00;0.50;;;28.80;99.90;;;;;;5053909;28;20460;-81
2023/07/19 10:04:47;;;;;;;1.33;0.50;;;28.90;99.90;;;;;;5054515;28;20463;-79
2023/07/19 10:07:25;;;;;;;1.50;0.23;;;28.90;99.90;;;;;;5054627;28;20795;-80
2023/07/19 10:10:02;;;;;;;0.93;0.20;;;29.20;99.90;;;;;;5054088;28;20981;-80
2023/07/19 10:12:28;;;;;;;1.37;0.43;;;29.70;99.90;;;;;;5069968;28;20474;-80
2023/07/19 10:15:02;;;;;;;3.10;0.67;;;29.70;99.90;;;;;;5054440;28;20447;-81
2023/07/19 10:17:29;;;;;;;0.80;0.20;;;29.40;99.90;;;;;;5054370;28;20475;-80
2023/07/19 10:20:13;;;;;;;2.03;0.43;;;29.70;99.90;;;;;;5054254;28;20412;-83
2023/07/19 10:22:56;;;;;;;1.00;0.30;;;29.70;99.90;;;;;;5054477;28;20939;-83
2023/07/19 10:25:49;;;;;;;2.40;0.50;;;29.80;99.90;;;;;;5051403;28;20455;-83
2023/07/19 10:28:26;;;;;;;1.73;0.70;;;29.40;99.90;;;;;;5054121;28;20908;-85
2023/07/19 10:30:54;;;;;;;1.50;0.60;;;29.20;99.90;;;;;;5054944;28;20412;-84
2023/07/19 10:33:22;;;;;;;1.80;0.90;;;29.00;99.90;;;;;;5041577;28;20420;-83
2023/07/19 10:35:50;;;;;;;2.57;0.60;;;29.10;99.90;;;;;;5034135;28;20405;-79
2023/07/19 10:38:21;;;;;;;2.30;0.50;;;29.50;99.90;;;;;;5034263;28;20564;-81
2023/07/19 10:40:58;;;;;;;2.33;0.50;;;30.20;99.90;;;;;;5033807;28;20421;-85
2023/07/19 10:43:25;;;;;;;4.30;1.40;;;30.60;99.90;;;;;;5033854;28;20507;-84
2023/07/19 10:45:52;;;;;;;0.90;0.30;;;30.30;99.90;;;;;;5033980;28;20413;-83
2023/07/19 10:48:19;;;;;;;0.97;0.40;;;29.90;99.90;;;;;;5033924;28;20448;-84
2023/07/19 10:50:45;;;;;;;1.73;0.73;;;29.30;99.90;;;;;;5033885;28;20500;-84
2023/07/19 10:53:10;;;;;;;1.40;0.60;;;28.50;99.90;;;;;;5033764;28;20512;-82
2023/07/19 10:55:35;;;;;;;1.93;0.60;;;27.60;99.90;;;;;;5033381;28;20174;-78
2023/07/19 10:58:01;;;;;;;2.50;1.20;;;27.00;99.90;;;;;;5033649;28;20264;-78
2023/07/19 11:00:27;;;;;;;1.60;0.80;;;26.50;99.90;;;;;;5033506;28;20166;-78
2023/07/19 11:02:56;;;;;;;3.70;0.93;;;26.10;99.90;;;;;;5033652;28;20261;-78
2023/07/19 11:05:22;;;;;;;1.40;1.00;;;25.70;99.90;;;;;;5033641;28;20478;-79
2023/07/19 11:07:49;;;;;;;2.83;0.87;;;25.40;99.90;;;;;;5033607;28;20409;-79
2023/07/19 11:10:15;;;;;;;3.13;0.80;;;25.20;99.90;;;;;;5031638;28;20175;-80
2023/07/19 11:12:41;;;;;;;5.53;1.30;;;25.20;99.90;;;;;;5033130;28;20417;-79
2023/07/19 11:15:07;;;;;;;3.70;1.90;;;25.20;99.90;;;;;;5033402;28;20186;-79
2023/07/19 11:17:35;;;;;;;4.20;0.40;;;25.20;99.90;;;;;;5033284;28;20518;-80
2023/07/19 11:20:01;;;;;;;1.40;1.00;;;25.40;99.90;;;;;;5044698;28;20789;-80
2023/07/19 11:22:27;;;;;;;3.03;1.17;;;25.40;99.90;;;;;;5045325;28;20412;-79
2023/07/19 11:24:54;;;;;;;2.30;0.83;;;25.30;99.90;;;;;;5046087;28;20201;-83
2023/07/19 11:27:36;;;;;;;2.27;1.00;;;25.50;99.90;;;;;;5048910;28;20916;-79
2023/07/19 11:30:02;;;;;;;1.53;0.60;;;25.70;99.90;;;;;;5044333;28;20419;-82
2023/07/19 11:32:28;;;;;;;1.60;0.70;;;25.80;99.90;;;;;;5042037;28;20421;-83
2023/07/19 11:34:56;;;;;;;1.97;0.97;;;25.70;99.90;;;;;;5047107;28;20419;-82
2023/07/19 11:37:28;;;;;;;3.73;0.90;;;25.70;99.90;;;;;;5052901;28;20562;-85
2023/07/19 11:39:57;;;;;;;3.37;1.40;;;25.80;99.90;;;;;;5050364;28;20427;-85
2023/07/19 11:42:38;;;;;;;1.97;1.20;;;25.70;99.90;;;;;;5051107;28;20476;-85
2023/07/19 11:45:19;;;;;;;2.53;1.00;;;25.60;99.90;;;;;;5052762;28;20754;-83
2023/07/19 11:47:48;;;;;;;2.20;1.23;;;25.40;99.90;;;;;;5051642;28;20423;-84
2023/07/19 11:50:13;;;;;;;1.20;0.63;;;25.20;99.90;;;;;;5051077;28;20468;-85
2023/07/19 11:52:51;;;;;;;2.73;1.47;;;25.00;99.90;;;;;;5052550;28;20444;-83
2023/07/19 11:55:19;;;;;;;1.57;0.83;;;24.80;99.90;;;;;;5052225;28;20649;-84
2023/07/19 11:57:48;;;;;;;2.10;1.30;;;24.80;99.90;;;;;;5052291;28;20529;-84
2023/07/19 12:00:14;;;;;;;6.80;1.83;;;24.60;99.90;;;;;;5052507;28;20420;-85
2023/07/19 12:02:44;;;;;;;1.53;1.10;;;24.50;99.90;;;;;;5052164;28;20515;-85
2023/07/19 12:05:12;;;;;;;4.30;1.17;;;24.40;99.90;;;;;;5051171;28;20407;-83
2023/07/19 12:07:38;;;;;;;2.90;1.07;;;24.30;99.90;;;;;;5052140;28;20440;-84
2023/07/19 12:10:04;;;;;;;3.90;2.10;;;24.20;99.90;;;;;;5051994;28;20470;-83
2023/07/19 12:12:34;;;;;;;2.23;1.20;;;24.30;99.90;;;;;;5052366;28;20209;-84
2023/07/19 12:15:02;;;;;;;2.50;0.93;;;24.60;99.90;;;;;;5052203;28;20412;-84
2023/07/19 12:17:33;;;;;;;4.47;1.27;;;25.10;99.90;;;;;;5052159;28;20491;-82
2023/07/19 12:19:59;;;;;;;3.27;1.00;;;25.50;99.90;;;;;;5045008;28;20436;-84
2023/07/19 12:22:32;;;;;;;2.53;1.20;;;25.90;99.90;;;;;;5042843;28;20469;-84
2023/07/19 12:24:58;;;;;;;3.40;0.77;;;26.00;99.90;;;;;;5039755;28;20428;-79
2023/07/19 12:27:24;;;;;;;1.97;0.97;;;26.00;99.90;;;;;;5036127;28;20401;-80
2023/07/19 12:29:50;;;;;;;2.23;0.60;;;26.00;99.90;;;;;;5036097;28;20178;-83
2023/07/19 12:32:16;;;;;;;2.20;1.00;;;25.90;99.90;;;;;;5036143;28;20421;-84
2023/07/19 12:34:43;;;;;;;2.73;1.30;;;25.80;99.90;;;;;;5036052;28;20174;-84
2023/07/19 12:37:09;;;;;;;2.00;1.10;;;25.60;99.90;;;;;;5035610;28;20484;-84
2023/07/19 12:39:34;;;;;;;4.90;1.50;;;25.50;99.90;;;;;;5034104;28;20466;-83
2023/07/19 12:42:00;;;;;;;1.90;0.87;;;25.30;99.90;;;;;;5051065;28;20235;-85
2023/07/19 12:44:25;;;;;;;2.57;1.30;;;25.20;99.90;;;;;;5055756;28;20174;-83
2023/07/19 12:46:51;;;;;;;1.93;0.80;;;25.00;99.90;;;;;;5055768;28;20189;-84